createdAt,value
2022-11-26T00:00:51.849Z,3.00
2022-11-26T00:03:19.167Z,3.25
2022-11-26T00:05:49.650Z,4.10
2022-11-26T00:08:26.456Z,3.63
2022-11-26T00:10:54.705Z,3.60
2022-11-26T00:13:24.617Z,3.92
2022-11-26T00:15:52.085Z,4.35
2022-11-26T00:18:19.857Z,3.35
2022-11-26T00:20:51.134Z,4.40
2022-11-26T00:23:21.633Z,4.18
2022-11-26T00:25:55.303Z,3.72
2022-11-26T00:28:32.054Z,4.10
2022-11-26T00:31:01.996Z,4.57
2022-11-26T00:33:30.402Z,4.70
2022-11-26T00:36:02.409Z,5.13
2022-11-26T00:38:30.815Z,5.40
2022-11-26T00:40:58.288Z,5.43
2022-11-26T00:43:24.880Z,5.43
2022-11-26T00:45:51.542Z,5.18
2022-11-26T00:48:19.381Z,5.10
2022-11-26T00:50:51.759Z,5.32
2022-11-26T00:53:22.593Z,5.45
2022-11-26T00:55:50.268Z,5.35
2022-11-26T00:58:27.008Z,4.95
2022-11-26T01:00:55.943Z,5.88
2022-11-26T01:03:22.671Z,6.00
2022-11-26T01:05:58.627Z,5.50
2022-11-26T01:08:34.353Z,6.07
2022-11-26T01:11:03.773Z,5.32
2022-11-26T01:13:30.897Z,4.70
2022-11-26T01:16:00.113Z,5.18
2022-11-26T01:18:28.069Z,5.22
2022-11-26T01:20:54.968Z,5.30
2022-11-26T01:23:21.805Z,4.68
2022-11-26T01:25:48.484Z,5.05
2022-11-26T01:28:17.940Z,5.38
2022-11-26T01:30:45.409Z,4.65
2022-11-26T01:33:12.082Z,5.30
2022-11-26T01:35:38.777Z,5.45
2022-11-26T01:38:05.490Z,5.05
2022-11-26T01:41:09.431Z,4.40
2022-11-26T01:43:43.463Z,3.88
2022-11-26T01:46:18.451Z,4.40
2022-11-26T01:48:47.079Z,4.03
2022-11-26T01:51:18.741Z,4.45
2022-11-26T01:53:53.344Z,4.60
2022-11-26T01:56:41.135Z,4.15
2022-11-26T01:59:16.428Z,3.55
2022-11-26T02:01:43.332Z,3.40
2022-11-26T02:04:21.932Z,3.83
2022-11-26T02:06:50.024Z,4.32
2022-11-26T02:09:17.898Z,4.68
2022-11-26T02:11:44.933Z,4.43
2022-11-26T02:14:16.499Z,5.13
2022-11-26T02:16:48.826Z,5.80
2022-11-26T02:19:40.401Z,6.38
2022-11-26T02:22:18.008Z,6.65
2022-11-26T02:25:15.529Z,7.13
2022-11-26T02:28:13.576Z,7.15
2022-11-26T02:30:46.137Z,7.75
2022-11-26T02:33:54.826Z,7.88
2022-11-26T02:36:44.762Z,8.40
2022-11-26T02:39:16.830Z,7.93
2022-11-26T02:41:49.364Z,9.25
2022-11-26T02:44:19.566Z,9.88
2022-11-26T02:46:48.735Z,8.52
2022-11-26T02:49:20.172Z,10.50
2022-11-26T02:51:51.728Z,10.50
2022-11-26T02:54:22.556Z,10.80
2022-11-26T02:56:51.705Z,11.02
2022-11-26T02:59:19.230Z,10.32
2022-11-26T03:02:20.135Z,11.02
2022-11-26T03:04:52.864Z,11.38
2022-11-26T03:07:20.448Z,10.93
2022-11-26T03:09:59.987Z,11.48
2022-11-26T03:12:27.227Z,12.00
2022-11-26T03:14:54.073Z,11.85
2022-11-26T03:17:20.796Z,11.25
2022-11-26T03:19:47.597Z,12.57
2022-11-26T03:22:15.274Z,12.07
2022-11-26T03:24:42.461Z,12.18
2022-11-26T03:27:09.272Z,12.15
2022-11-26T03:29:35.906Z,13.00
2022-11-26T03:32:02.973Z,11.27
2022-11-26T03:34:29.691Z,11.13
2022-11-26T03:36:56.854Z,12.18
2022-11-26T03:39:23.492Z,12.20
2022-11-26T03:41:50.152Z,12.18
2022-11-26T03:44:16.829Z,11.60
2022-11-26T03:46:43.448Z,11.68
2022-11-26T03:49:10.182Z,11.20
2022-11-26T03:51:37.001Z,11.90
2022-11-26T03:54:04.316Z,11.70
2022-11-26T03:56:30.885Z,11.98
2022-11-26T03:58:57.660Z,11.60
2022-11-26T04:01:24.329Z,12.68
2022-11-26T04:03:51.197Z,13.27
2022-11-26T04:06:17.875Z,13.30
2022-11-26T04:08:44.481Z,12.45
2022-11-26T04:11:11.187Z,13.07
2022-11-26T04:13:37.754Z,14.15
2022-11-26T04:16:04.684Z,15.27
2022-11-26T04:18:31.224Z,15.00
2022-11-26T04:20:57.985Z,15.45
2022-11-26T04:23:24.715Z,15.20
2022-11-26T04:25:51.316Z,16.33
2022-11-26T04:28:17.991Z,16.35
2022-11-26T04:30:44.595Z,16.55
2022-11-26T04:33:11.177Z,17.30
2022-11-26T04:35:38.481Z,16.30
2022-11-26T04:38:05.685Z,17.38
2022-11-26T04:40:32.308Z,17.92
2022-11-26T04:42:59.200Z,16.88
2022-11-26T04:45:26.084Z,17.33
2022-11-26T04:47:53.150Z,17.52
2022-11-26T04:50:19.943Z,18.00
2022-11-26T04:52:49.711Z,18.77
2022-11-26T04:55:18.196Z,17.45
2022-11-26T04:57:45.064Z,18.08
2022-11-26T05:00:12.380Z,17.65
2022-11-26T05:02:38.967Z,18.17
2022-11-26T05:05:06.133Z,20.50
2022-11-26T05:07:33.395Z,20.08
2022-11-26T05:10:00.173Z,20.27
2022-11-26T05:12:26.976Z,18.80
2022-11-26T05:14:53.717Z,19.48
2022-11-26T05:17:20.314Z,19.27
2022-11-26T05:19:46.889Z,18.73
2022-11-26T05:22:13.741Z,18.42
2022-11-26T05:24:40.674Z,18.73
2022-11-26T05:27:07.462Z,17.48
2022-11-26T05:29:34.126Z,16.98
2022-11-26T05:32:00.983Z,18.60
2022-11-26T05:34:27.717Z,17.98
2022-11-26T05:36:54.400Z,18.02
2022-11-26T05:39:21.433Z,17.25
2022-11-26T05:41:48.703Z,16.55
2022-11-26T05:44:15.373Z,15.27
2022-11-26T05:46:42.844Z,14.98
2022-11-26T05:49:10.222Z,16.15
2022-11-26T05:51:36.842Z,15.15
2022-11-26T05:54:03.831Z,15.38
2022-11-26T05:56:30.366Z,14.77
2022-11-26T05:58:56.948Z,14.32
2022-11-26T06:01:23.488Z,14.70
2022-11-26T06:03:50.340Z,13.63
2022-11-26T06:06:17.040Z,15.25
2022-11-26T06:08:43.673Z,14.98
2022-11-26T06:11:13.641Z,15.05
2022-11-26T06:13:40.353Z,15.15
2022-11-26T06:16:07.744Z,15.25
2022-11-26T06:18:34.655Z,16.48
2022-11-26T06:21:02.343Z,14.75
2022-11-26T06:23:29.196Z,15.93
2022-11-26T06:25:55.756Z,15.55
2022-11-26T06:28:22.416Z,13.25
2022-11-26T06:30:49.186Z,16.95
2022-11-26T06:33:15.922Z,10.85
2022-11-26T06:35:42.801Z,9.40
2022-11-26T06:38:09.906Z,9.95
2022-11-26T06:40:36.756Z,8.27
2022-11-26T06:43:03.348Z,8.50
2022-11-26T06:45:30.080Z,7.65
2022-11-26T06:47:56.844Z,8.90
2022-11-26T06:50:23.879Z,10.07
2022-11-26T06:52:52.426Z,11.35
2022-11-26T06:55:19.755Z,10.90
2022-11-26T06:57:50.175Z,10.65
2022-11-26T07:00:17.029Z,11.18
2022-11-26T07:02:44.071Z,11.52
2022-11-26T07:05:10.714Z,12.25
2022-11-26T07:07:38.445Z,13.18
2022-11-26T07:10:05.747Z,14.20
2022-11-26T07:12:32.512Z,13.57
2022-11-26T07:14:59.052Z,13.60
2022-11-26T07:17:25.709Z,14.70
2022-11-26T07:19:52.407Z,15.15
2022-11-26T07:22:37.577Z,14.70
2022-11-26T07:25:12.142Z,15.75
2022-11-26T07:27:39.548Z,16.10
2022-11-26T07:30:06.854Z,14.68
2022-11-26T07:32:33.581Z,14.45
2022-11-26T07:35:01.948Z,14.35
2022-11-26T07:37:28.915Z,15.77
2022-11-26T07:39:55.932Z,15.55
2022-11-26T07:42:22.603Z,14.32
2022-11-26T07:44:49.212Z,14.20
2022-11-26T07:47:15.845Z,13.40
2022-11-26T07:49:42.536Z,13.50
2022-11-26T07:52:09.349Z,12.45
2022-11-26T07:54:36.585Z,13.27
2022-11-26T07:57:03.637Z,13.73
2022-11-26T07:59:30.201Z,12.40
2022-11-26T08:01:56.834Z,12.05
2022-11-26T08:04:23.552Z,14.00
2022-11-26T08:06:50.254Z,14.32
2022-11-26T08:09:17.272Z,12.77
2022-11-26T08:11:43.959Z,11.38
2022-11-26T08:14:12.724Z,12.80
2022-11-26T08:16:39.946Z,11.18
2022-11-26T08:19:11.238Z,10.35
2022-11-26T08:21:39.612Z,11.05
2022-11-26T08:24:08.417Z,10.88
2022-11-26T08:26:39.852Z,8.77
2022-11-26T08:29:10.518Z,12.43
2022-11-26T08:31:45.148Z,12.00
2022-11-26T08:34:15.260Z,12.02
2022-11-26T08:36:42.439Z,13.05
2022-11-26T08:39:15.730Z,13.02
2022-11-26T08:41:46.043Z,11.98
2022-11-26T08:44:15.701Z,11.90
2022-11-26T08:46:42.825Z,12.20
2022-11-26T08:49:12.334Z,10.13
2022-11-26T08:51:39.216Z,16.85
2022-11-26T08:54:05.801Z,11.82
2022-11-26T08:56:32.817Z,9.50
2022-11-26T08:58:59.649Z,8.70
2022-11-26T09:01:28.978Z,9.63
2022-11-26T09:03:58.589Z,7.75
2022-11-26T09:06:27.428Z,9.00
2022-11-26T09:09:12.815Z,9.52
2022-11-26T09:11:47.538Z,8.85
2022-11-26T09:14:17.123Z,8.90
2022-11-26T09:16:44.190Z,10.30
2022-11-26T09:19:13.200Z,9.70
2022-11-26T09:21:40.560Z,11.30
2022-11-26T09:24:07.535Z,9.98
2022-11-26T09:26:34.614Z,10.80
2022-11-26T09:29:01.538Z,10.13
2022-11-26T09:31:28.556Z,11.18
2022-11-26T09:33:57.393Z,11.43
2022-11-26T09:36:24.289Z,10.73
2022-11-26T09:39:00.435Z,9.40
2022-11-26T09:41:38.157Z,10.13
2022-11-26T09:44:07.402Z,8.52
2022-11-26T09:47:10.552Z,8.63
2022-11-26T09:50:03.841Z,8.95
2022-11-26T09:52:36.947Z,8.30
2022-11-26T09:55:29.384Z,8.30
2022-11-26T09:58:53.262Z,8.80
2022-11-26T10:01:22.923Z,12.20
2022-11-26T10:03:50.895Z,14.02
2022-11-26T10:06:26.696Z,12.13
2022-11-26T10:09:15.014Z,10.98
2022-11-26T10:11:49.219Z,12.85
2022-11-26T10:14:40.926Z,12.48
2022-11-26T10:17:29.767Z,12.65
2022-11-26T10:20:39.596Z,14.27
2022-11-26T10:23:18.834Z,10.10
2022-11-26T10:25:50.291Z,9.27
2022-11-26T10:28:30.918Z,9.30
2022-11-26T10:31:00.489Z,9.70
2022-11-26T10:33:42.299Z,11.00
2022-11-26T10:36:21.808Z,9.15
2022-11-26T10:38:48.602Z,10.00
2022-11-26T10:41:15.883Z,10.00
2022-11-26T10:43:42.891Z,8.55
2022-11-26T10:46:32.252Z,9.30
2022-11-26T10:49:24.374Z,9.45
2022-11-26T10:51:55.003Z,9.45
2022-11-26T10:54:27.009Z,9.63
2022-11-26T10:56:54.183Z,9.65
2022-11-26T10:59:27.066Z,10.05
2022-11-26T11:01:57.557Z,7.93
2022-11-26T11:04:30.560Z,8.13
2022-11-26T11:06:58.084Z,8.15
2022-11-26T11:09:28.095Z,8.88
2022-11-26T11:12:13.502Z,8.95
2022-11-26T11:14:43.556Z,7.30
2022-11-26T11:17:37.308Z,8.05
2022-11-26T11:20:43.480Z,7.53
2022-11-26T11:23:10.689Z,8.85
2022-11-26T11:25:40.394Z,6.88
2022-11-26T11:28:13.221Z,7.03
2022-11-26T11:30:41.658Z,3.90
2022-11-26T11:33:26.442Z,4.90
2022-11-26T11:36:07.400Z,4.95
2022-11-26T11:38:56.175Z,4.35
2022-11-26T11:41:33.931Z,4.47
2022-11-26T11:44:11.276Z,3.97
2022-11-26T11:46:37.830Z,4.93
2022-11-26T11:49:46.839Z,4.93
2022-11-26T11:52:24.809Z,3.88
2022-11-26T11:55:12.885Z,4.13
2022-11-26T11:58:24.323Z,4.53
2022-11-26T12:01:12.499Z,4.72
2022-11-26T12:03:55.597Z,5.88
2022-11-26T12:07:00.430Z,4.35
2022-11-26T12:09:32.890Z,6.03
2022-11-26T12:12:21.195Z,5.90
2022-11-26T12:14:51.920Z,5.43
2022-11-26T12:17:49.319Z,6.70
2022-11-26T12:20:26.977Z,11.82
2022-11-26T12:23:04.137Z,8.32
2022-11-26T12:25:37.003Z,8.73
2022-11-26T12:28:16.492Z,7.50
2022-11-26T12:30:46.208Z,7.60
2022-11-26T12:33:23.474Z,6.80
2022-11-26T12:35:56.766Z,7.95
2022-11-26T12:38:44.170Z,6.70
2022-11-26T12:41:32.250Z,5.82
2022-11-26T12:44:10.357Z,6.00
2022-11-26T12:47:16.095Z,5.97
2022-11-26T12:50:02.253Z,6.15
2022-11-26T12:52:38.162Z,5.65
2022-11-26T12:55:20.854Z,5.10
2022-11-26T12:58:28.948Z,4.25
2022-11-26T13:00:57.057Z,4.68
2022-11-26T13:03:33.795Z,4.70
2022-11-26T13:06:28.533Z,5.60
2022-11-26T13:09:19.114Z,5.00
2022-11-26T13:12:07.088Z,4.53
2022-11-26T13:14:52.368Z,5.60
2022-11-26T13:17:24.229Z,5.00
2022-11-26T13:19:57.879Z,4.07
2022-11-26T13:22:52.279Z,3.75
2022-11-26T13:25:37.357Z,5.38
2022-11-26T13:28:25.526Z,4.30
2022-11-26T13:31:07.463Z,5.03
2022-11-26T13:33:54.567Z,5.05
2022-11-26T13:36:39.336Z,6.90
2022-11-26T13:39:38.022Z,5.03
2022-11-26T13:42:41.573Z,5.03
2022-11-26T13:45:19.902Z,5.30
2022-11-26T13:47:53.479Z,5.22
2022-11-26T13:50:29.711Z,4.65
2022-11-26T13:53:26.490Z,3.30
2022-11-26T13:56:01.523Z,5.45
2022-11-26T13:58:35.005Z,4.50
2022-11-26T14:01:30.006Z,5.95
2022-11-26T14:03:57.903Z,4.00
2022-11-26T14:06:24.761Z,4.40
2022-11-26T14:08:53.165Z,3.55
2022-11-26T14:11:41.823Z,4.72
2022-11-26T14:14:26.559Z,4.20
2022-11-26T14:17:02.241Z,3.75
2022-11-26T14:19:41.306Z,3.25
2022-11-26T14:22:09.421Z,5.32
2022-11-26T14:24:51.085Z,6.88
2022-11-26T14:27:24.226Z,5.70
2022-11-26T14:30:17.605Z,6.07
2022-11-26T14:33:14.597Z,7.93
2022-11-26T14:35:52.412Z,6.63
2022-11-26T14:38:28.050Z,22.50
2022-11-26T14:41:01.433Z,21.08
2022-11-26T14:43:30.738Z,22.58
2022-11-26T14:46:11.437Z,21.35
2022-11-26T14:48:46.802Z,8.02
2022-11-26T14:51:22.849Z,4.97
2022-11-26T14:53:51.472Z,4.78
2022-11-26T14:56:21.242Z,4.03
2022-11-26T14:58:53.953Z,5.88
2022-11-26T15:01:29.231Z,8.60
2022-11-26T15:03:58.493Z,8.68
2022-11-26T15:06:38.322Z,10.90
2022-11-26T15:09:10.318Z,14.90
2022-11-26T15:11:40.663Z,8.73
2022-11-26T15:14:18.186Z,7.75
2022-11-26T15:16:51.358Z,6.65
2022-11-26T15:19:23.083Z,6.90
2022-11-26T15:21:49.861Z,7.20
2022-11-26T15:24:16.680Z,9.52
2022-11-26T15:26:46.349Z,14.23
2022-11-26T15:29:41.480Z,10.10
2022-11-26T15:32:29.017Z,10.25
2022-11-26T15:34:59.352Z,10.57
2022-11-26T15:37:27.165Z,11.48
2022-11-26T15:40:22.824Z,12.23
2022-11-26T15:42:53.785Z,12.75
2022-11-26T15:45:22.561Z,12.98
2022-11-26T15:47:52.454Z,11.45
2022-11-26T15:50:31.293Z,13.18
2022-11-26T15:53:05.632Z,13.93
2022-11-26T15:55:36.705Z,13.77
2022-11-26T15:58:09.084Z,16.40
2022-11-26T16:00:41.503Z,16.88
2022-11-26T16:03:41.890Z,15.88
2022-11-26T16:06:26.068Z,14.98
2022-11-26T16:09:13.691Z,12.55
2022-11-26T16:11:57.706Z,11.98
2022-11-26T16:14:39.495Z,24.88
2022-11-26T16:17:15.486Z,15.30
2022-11-26T16:19:49.385Z,15.05
2022-11-26T16:22:18.262Z,14.25
2022-11-26T16:24:44.870Z,13.45
2022-11-26T16:27:17.798Z,12.35
2022-11-26T16:29:45.448Z,11.77
2022-11-26T16:32:17.172Z,12.70
2022-11-26T16:34:44.865Z,13.48
2022-11-26T16:37:31.757Z,13.55
2022-11-26T16:40:10.168Z,15.75
2022-11-26T16:42:36.812Z,13.25
2022-11-26T16:45:04.476Z,13.93
2022-11-26T16:47:41.347Z,13.35
2022-11-26T16:50:17.385Z,29.42
2022-11-26T16:52:44.591Z,36.72
2022-11-26T16:55:16.840Z,33.15
2022-11-26T16:57:52.802Z,17.83
2022-11-26T17:00:22.244Z,21.35
2022-11-26T17:02:49.517Z,30.13
2022-11-26T17:05:17.620Z,32.40
2022-11-26T17:07:52.737Z,30.15
2022-11-26T17:10:25.220Z,36.65
2022-11-26T17:12:51.873Z,35.30
2022-11-26T17:15:19.257Z,36.33
2022-11-26T17:17:46.393Z,34.72
2022-11-26T17:20:19.189Z,34.33
2022-11-26T17:22:46.632Z,35.63
2022-11-26T17:25:13.893Z,34.80
2022-11-26T17:27:41.948Z,33.25
2022-11-26T17:30:15.471Z,29.00
2022-11-26T17:32:42.188Z,20.58
2022-11-26T17:35:09.648Z,23.73
2022-11-26T17:37:37.590Z,17.83
2022-11-26T17:40:07.049Z,19.02
2022-11-26T17:42:36.497Z,19.60
2022-11-26T17:45:04.124Z,18.73
2022-11-26T17:47:31.074Z,19.65
2022-11-26T17:49:57.774Z,18.98
2022-11-26T17:52:24.836Z,19.90
2022-11-26T17:54:51.471Z,20.45
2022-11-26T17:57:18.420Z,18.58
2022-11-26T17:59:45.282Z,20.15
2022-11-26T18:02:12.081Z,20.67
2022-11-26T18:04:38.816Z,19.60
2022-11-26T18:07:16.026Z,19.73
2022-11-26T18:09:43.115Z,19.13
2022-11-26T18:12:24.664Z,22.02
2022-11-26T18:14:53.686Z,22.15
2022-11-26T18:17:20.816Z,23.73
2022-11-26T18:19:47.565Z,25.85
2022-11-26T18:22:20.520Z,24.90
2022-11-26T18:24:56.979Z,23.98
2022-11-26T18:27:29.218Z,22.65
2022-11-26T18:29:55.889Z,21.90
2022-11-26T18:32:22.596Z,20.50
2022-11-26T18:34:50.833Z,21.08
2022-11-26T18:37:18.591Z,20.33
2022-11-26T18:39:45.424Z,19.00
2022-11-26T18:42:36.120Z,19.75
2022-11-26T18:45:00.156Z,20.58
2022-11-26T18:47:26.765Z,18.67
2022-11-26T18:49:53.471Z,16.98
2022-11-26T18:52:20.256Z,17.55
2022-11-26T18:54:46.868Z,18.08
2022-11-26T18:57:13.495Z,17.58
2022-11-26T18:59:40.252Z,16.63
2022-11-26T19:02:09.252Z,17.10
2022-11-26T19:04:36.149Z,17.70
2022-11-26T19:07:02.711Z,17.63
2022-11-26T19:09:29.316Z,15.90
2022-11-26T19:11:55.923Z,15.48
2022-11-26T19:14:22.497Z,16.30
2022-11-26T19:16:51.119Z,15.38
2022-11-26T19:19:18.069Z,15.45
2022-11-26T19:21:44.892Z,15.23
2022-11-26T19:24:12.635Z,15.50
2022-11-26T19:26:41.418Z,14.15
2022-11-26T19:29:09.669Z,14.98
2022-11-26T19:31:39.106Z,13.32
2022-11-26T19:34:10.134Z,13.43
2022-11-26T19:36:37.551Z,12.95
2022-11-26T19:39:05.675Z,14.20
2022-11-26T19:41:33.011Z,14.00
2022-11-26T19:44:05.474Z,13.77
2022-11-26T19:46:36.889Z,13.35
2022-11-26T19:49:03.596Z,14.13
2022-11-26T19:51:30.174Z,13.05
2022-11-26T19:53:57.275Z,13.68
2022-11-26T19:56:26.925Z,14.70
2022-11-26T19:58:54.310Z,11.98
2022-11-26T20:01:22.022Z,13.30
2022-11-26T20:03:49.394Z,14.02
2022-11-26T20:06:18.979Z,13.43
2022-11-26T20:08:47.142Z,14.35
2022-11-26T20:11:14.684Z,13.57
2022-11-26T20:13:42.815Z,12.57
2022-11-26T20:16:12.443Z,11.95
2022-11-26T20:18:40.324Z,14.00
2022-11-26T20:21:15.501Z,12.90
2022-11-26T20:23:42.146Z,13.35
2022-11-26T20:26:21.955Z,13.98
2022-11-26T20:28:49.605Z,14.52
2022-11-26T20:31:22.068Z,13.80
2022-11-26T20:33:50.951Z,13.98
2022-11-26T20:36:20.864Z,14.35
2022-11-26T20:38:51.076Z,13.75
2022-11-26T20:41:17.719Z,16.05
2022-11-26T20:43:44.999Z,15.15
2022-11-26T20:46:13.845Z,15.95
2022-11-26T20:48:43.577Z,15.10
2022-11-26T20:51:12.993Z,14.57
2022-11-26T20:53:41.155Z,14.00
2022-11-26T20:56:09.162Z,13.90
2022-11-26T20:58:35.905Z,14.10
2022-11-26T21:01:02.604Z,15.98
2022-11-26T21:03:30.064Z,15.10
2022-11-26T21:06:02.322Z,14.27
2022-11-26T21:08:29.246Z,15.27
2022-11-26T21:10:56.021Z,15.27
2022-11-26T21:13:22.940Z,14.98
2022-11-26T21:15:49.645Z,15.95
2022-11-26T21:18:16.546Z,16.23
2022-11-26T21:20:44.353Z,16.13
2022-11-26T21:23:12.974Z,17.70
2022-11-26T21:25:42.045Z,16.48
2022-11-26T21:28:10.562Z,17.05
2022-11-26T21:30:38.475Z,16.33
2022-11-26T21:33:09.328Z,15.50
2022-11-26T21:35:36.923Z,16.85
2022-11-26T21:38:05.023Z,17.67
2022-11-26T21:40:32.398Z,18.92
2022-11-26T21:42:58.997Z,22.35
2022-11-26T21:45:27.601Z,22.92
2022-11-26T21:47:54.436Z,26.30
2022-11-26T21:50:21.082Z,28.52
2022-11-26T21:52:47.965Z,31.45
2022-11-26T21:55:14.670Z,32.35
2022-11-26T21:57:41.237Z,33.15
2022-11-26T22:00:08.659Z,36.25
2022-11-26T22:02:35.432Z,33.78
2022-11-26T22:05:02.021Z,35.85
2022-11-26T22:07:30.281Z,31.15
2022-11-26T22:09:57.157Z,31.70
2022-11-26T22:12:23.698Z,33.78
2022-11-26T22:14:50.274Z,31.13
2022-11-26T22:17:16.818Z,31.65
2022-11-26T22:19:43.377Z,30.77
2022-11-26T22:22:09.937Z,32.00
2022-11-26T22:24:36.501Z,28.52
2022-11-26T22:27:03.120Z,28.73
2022-11-26T22:29:29.689Z,26.70
2022-11-26T22:31:56.307Z,27.13
2022-11-26T22:34:24.685Z,25.02
2022-11-26T22:36:51.773Z,27.05
2022-11-26T22:39:18.899Z,29.00
2022-11-26T22:41:47.216Z,29.27
2022-11-26T22:44:15.822Z,30.10
2022-11-26T22:46:43.152Z,29.25
2022-11-26T22:49:15.772Z,27.92
2022-11-26T22:51:42.517Z,28.55
2022-11-26T22:54:11.956Z,27.80
2022-11-26T22:56:39.169Z,25.65
2022-11-26T22:59:07.608Z,26.55
2022-11-26T23:01:36.373Z,25.38
2022-11-26T23:04:06.247Z,25.05
2022-11-26T23:06:34.674Z,22.75
2022-11-26T23:09:03.334Z,23.85
2022-11-26T23:11:33.026Z,24.33
2022-11-26T23:13:59.672Z,23.25
2022-11-26T23:16:27.294Z,25.17
2022-11-26T23:18:56.134Z,24.85
2022-11-26T23:21:28.440Z,24.60
2022-11-26T23:23:55.644Z,25.00
2022-11-26T23:26:27.619Z,24.95
2022-11-26T23:28:58.203Z,26.15
2022-11-26T23:31:27.718Z,25.85
2022-11-26T23:33:54.573Z,26.15
2022-11-26T23:36:21.726Z,26.35
2022-11-26T23:38:48.829Z,25.15
2022-11-26T23:41:15.981Z,25.92
2022-11-26T23:43:43.209Z,26.05
2022-11-26T23:46:20.662Z,25.65
2022-11-26T23:48:48.333Z,24.52
2022-11-26T23:51:20.451Z,25.25
2022-11-26T23:53:48.109Z,25.02
2022-11-26T23:56:17.482Z,25.98
2022-11-26T23:58:44.269Z,25.40
